sensor_id;sensor_type;location;lat;lon;timestamp;P1;durP1;ratioP1;P2;durP2;ratioP2
72557;SDS011;60583;50.094;8.748;2022-12-11T00:00:49;23.73;;;12.73;;
72557;SDS011;60583;50.094;8.748;2022-12-11T00:03:16;24.80;;;12.90;;
72557;SDS011;60583;50.094;8.748;2022-12-11T00:05:42;29.80;;;13.68;;
72557;SDS011;60583;50.094;8.748;2022-12-11T00:08:08;29.13;;;13.75;;
72557;SDS011;60583;50.094;8.748;2022-12-11T00:10:33;28.02;;;14.70;;
72557;SDS011;60583;50.094;8.748;2022-12-11T00:12:59;32.20;;;14.23;;
72557;SDS011;60583;50.094;8.748;2022-12-11T00:15:24;38.22;;;16.02;;
72557;SDS011;60583;50.094;8.748;2022-12-11T00:17:50;39.88;;;16.33;;
72557;SDS011;60583;50.094;8.748;2022-12-11T00:20:15;40.05;;;16.77;;
72557;SDS011;60583;50.094;8.748;2022-12-11T00:22:41;37.22;;;14.57;;
72557;SDS011;60583;50.094;8.748;2022-12-11T00:25:06;29.25;;;13.73;;
72557;SDS011;60583;50.094;8.748;2022-12-11T00:27:33;29.30;;;13.13;;
72557;SDS011;60583;50.094;8.748;2022-12-11T00:29:58;26.98;;;13.63;;
72557;SDS011;60583;50.094;8.748;2022-12-11T00:32:24;26.67;;;13.55;;
72557;SDS011;60583;50.094;8.748;2022-12-11T00:34:49;22.30;;;11.52;;
72557;SDS011;60583;50.094;8.748;2022-12-11T00:37:15;25.70;;;12.77;;
72557;SDS011;60583;50.094;8.748;2022-12-11T00:39:40;24.77;;;13.35;;
72557;SDS011;60583;50.094;8.748;2022-12-11T00:42:06;28.70;;;13.93;;
72557;SDS011;60583;50.094;8.748;2022-12-11T00:44:32;25.95;;;13.18;;
72557;SDS011;60583;50.094;8.748;2022-12-11T00:46:58;25.58;;;12.75;;
72557;SDS011;60583;50.094;8.748;2022-12-11T00:49:23;26.40;;;12.63;;
72557;SDS011;60583;50.094;8.748;2022-12-11T00:51:49;25.02;;;11.82;;
72557;SDS011;60583;50.094;8.748;2022-12-11T00:54:14;25.63;;;11.88;;
72557;SDS011;60583;50.094;8.748;2022-12-11T00:56:40;25.73;;;12.23;;
72557;SDS011;60583;50.094;8.748;2022-12-11T00:59:05;26.33;;;12.70;;
72557;SDS011;60583;50.094;8.748;2022-12-11T01:01:31;27.92;;;12.20;;
72557;SDS011;60583;50.094;8.748;2022-12-11T01:03:57;27.90;;;12.27;;
72557;SDS011;60583;50.094;8.748;2022-12-11T01:06:23;26.58;;;12.68;;
72557;SDS011;60583;50.094;8.748;2022-12-11T01:08:50;27.00;;;13.32;;
72557;SDS011;60583;50.094;8.748;2022-12-11T01:11:34;24.25;;;12.20;;
72557;SDS011;60583;50.094;8.748;2022-12-11T01:14:00;24.23;;;11.43;;
72557;SDS011;60583;50.094;8.748;2022-12-11T01:16:25;24.58;;;11.43;;
72557;SDS011;60583;50.094;8.748;2022-12-11T01:18:50;24.08;;;11.98;;
72557;SDS011;60583;50.094;8.748;2022-12-11T01:21:16;27.45;;;14.20;;
72557;SDS011;60583;50.094;8.748;2022-12-11T01:23:41;23.55;;;11.48;;
72557;SDS011;60583;50.094;8.748;2022-12-11T01:26:11;23.75;;;11.57;;
72557;SDS011;60583;50.094;8.748;2022-12-11T01:28:38;25.30;;;12.00;;
72557;SDS011;60583;50.094;8.748;2022-12-11T01:31:07;28.27;;;12.45;;
72557;SDS011;60583;50.094;8.748;2022-12-11T01:33:34;27.02;;;13.02;;
72557;SDS011;60583;50.094;8.748;2022-12-11T01:36:00;25.35;;;12.65;;
72557;SDS011;60583;50.094;8.748;2022-12-11T01:38:25;24.85;;;12.05;;
72557;SDS011;60583;50.094;8.748;2022-12-11T01:40:51;32.03;;;14.00;;
72557;SDS011;60583;50.094;8.748;2022-12-11T01:43:16;26.70;;;13.82;;
72557;SDS011;60583;50.094;8.748;2022-12-11T01:45:43;27.35;;;13.15;;
72557;SDS011;60583;50.094;8.748;2022-12-11T01:48:13;26.85;;;12.43;;
72557;SDS011;60583;50.094;8.748;2022-12-11T01:50:44;27.88;;;12.52;;
72557;SDS011;60583;50.094;8.748;2022-12-11T01:53:15;29.60;;;14.02;;
72557;SDS011;60583;50.094;8.748;2022-12-11T01:55:45;25.42;;;13.07;;
72557;SDS011;60583;50.094;8.748;2022-12-11T01:58:14;23.58;;;12.30;;
72557;SDS011;60583;50.094;8.748;2022-12-11T02:00:40;26.80;;;13.55;;
72557;SDS011;60583;50.094;8.748;2022-12-11T02:03:05;27.60;;;13.07;;
72557;SDS011;60583;50.094;8.748;2022-12-11T02:05:31;26.40;;;13.30;;
72557;SDS011;60583;50.094;8.748;2022-12-11T02:07:57;30.85;;;13.25;;
72557;SDS011;60583;50.094;8.748;2022-12-11T02:10:27;27.02;;;13.40;;
72557;SDS011;60583;50.094;8.748;2022-12-11T02:13:06;25.27;;;13.13;;
72557;SDS011;60583;50.094;8.748;2022-12-11T02:15:41;25.45;;;12.52;;
72557;SDS011;60583;50.094;8.748;2022-12-11T02:21:19;27.77;;;13.35;;
72557;SDS011;60583;50.094;8.748;2022-12-11T02:29:33;29.52;;;13.23;;
72557;SDS011;60583;50.094;8.748;2022-12-11T02:34:49;23.30;;;11.93;;
72557;SDS011;60583;50.094;8.748;2022-12-11T02:37:22;24.60;;;12.68;;
72557;SDS011;60583;50.094;8.748;2022-12-11T02:39:53;22.63;;;11.43;;
72557;SDS011;60583;50.094;8.748;2022-12-11T02:42:20;22.77;;;11.48;;
72557;SDS011;60583;50.094;8.748;2022-12-11T02:44:47;26.25;;;12.57;;
72557;SDS011;60583;50.094;8.748;2022-12-11T02:47:15;26.35;;;12.07;;
72557;SDS011;60583;50.094;8.748;2022-12-11T02:49:44;23.00;;;12.15;;
72557;SDS011;60583;50.094;8.748;2022-12-11T02:52:13;24.45;;;11.73;;
72557;SDS011;60583;50.094;8.748;2022-12-11T02:54:43;24.90;;;12.90;;
72557;SDS011;60583;50.094;8.748;2022-12-11T02:57:11;29.17;;;13.15;;
72557;SDS011;60583;50.094;8.748;2022-12-11T02:59:41;25.13;;;13.02;;
72557;SDS011;60583;50.094;8.748;2022-12-11T03:02:09;23.50;;;13.00;;
72557;SDS011;60583;50.094;8.748;2022-12-11T03:04:37;23.23;;;11.98;;
72557;SDS011;60583;50.094;8.748;2022-12-11T03:07:08;27.15;;;12.30;;
72557;SDS011;60583;50.094;8.748;2022-12-11T03:09:39;26.02;;;12.30;;
72557;SDS011;60583;50.094;8.748;2022-12-11T03:12:09;27.30;;;13.05;;
72557;SDS011;60583;50.094;8.748;2022-12-11T03:14:38;26.50;;;12.52;;
72557;SDS011;60583;50.094;8.748;2022-12-11T03:17:07;29.27;;;13.88;;
72557;SDS011;60583;50.094;8.748;2022-12-11T03:19:43;26.50;;;12.45;;
72557;SDS011;60583;50.094;8.748;2022-12-11T03:22:16;25.30;;;12.30;;
72557;SDS011;60583;50.094;8.748;2022-12-11T03:24:50;27.33;;;12.55;;
72557;SDS011;60583;50.094;8.748;2022-12-11T03:27:26;26.40;;;12.05;;
72557;SDS011;60583;50.094;8.748;2022-12-11T03:29:57;26.08;;;12.25;;
72557;SDS011;60583;50.094;8.748;2022-12-11T03:32:27;27.25;;;12.73;;
72557;SDS011;60583;50.094;8.748;2022-12-11T03:35:07;27.05;;;12.60;;
72557;SDS011;60583;50.094;8.748;2022-12-11T03:37:38;26.92;;;12.77;;
72557;SDS011;60583;50.094;8.748;2022-12-11T03:40:08;27.02;;;12.90;;
72557;SDS011;60583;50.094;8.748;2022-12-11T03:42:38;27.27;;;12.65;;
72557;SDS011;60583;50.094;8.748;2022-12-11T03:45:06;28.50;;;12.50;;
72557;SDS011;60583;50.094;8.748;2022-12-11T03:47:32;27.25;;;13.13;;
72557;SDS011;60583;50.094;8.748;2022-12-11T03:49:59;27.58;;;13.02;;
72557;SDS011;60583;50.094;8.748;2022-12-11T03:52:27;30.42;;;13.50;;
72557;SDS011;60583;50.094;8.748;2022-12-11T03:54:53;29.40;;;12.88;;
72557;SDS011;60583;50.094;8.748;2022-12-11T03:57:24;29.15;;;12.90;;
72557;SDS011;60583;50.094;8.748;2022-12-11T03:59:53;27.38;;;13.02;;
72557;SDS011;60583;50.094;8.748;2022-12-11T04:02:19;29.48;;;13.43;;
72557;SDS011;60583;50.094;8.748;2022-12-11T04:04:44;27.55;;;13.93;;
72557;SDS011;60583;50.094;8.748;2022-12-11T04:07:09;28.60;;;13.55;;
72557;SDS011;60583;50.094;8.748;2022-12-11T04:09:35;27.30;;;12.18;;
72557;SDS011;60583;50.094;8.748;2022-12-11T04:12:00;30.75;;;13.07;;
72557;SDS011;60583;50.094;8.748;2022-12-11T04:14:26;33.20;;;14.57;;
72557;SDS011;60583;50.094;8.748;2022-12-11T04:17:10;31.40;;;14.65;;
72557;SDS011;60583;50.094;8.748;2022-12-11T04:19:35;27.92;;;15.13;;
72557;SDS011;60583;50.094;8.748;2022-12-11T04:22:19;34.17;;;13.68;;
72557;SDS011;60583;50.094;8.748;2022-12-11T04:24:51;30.50;;;13.35;;
72557;SDS011;60583;50.094;8.748;2022-12-11T04:27:16;31.05;;;14.45;;
72557;SDS011;60583;50.094;8.748;2022-12-11T04:30:04;30.83;;;13.43;;
72557;SDS011;60583;50.094;8.748;2022-12-11T04:32:32;32.35;;;14.55;;
72557;SDS011;60583;50.094;8.748;2022-12-11T04:34:58;31.48;;;14.07;;
72557;SDS011;60583;50.094;8.748;2022-12-11T04:37:23;29.75;;;14.23;;
72557;SDS011;60583;50.094;8.748;2022-12-11T04:39:49;29.80;;;14.20;;
72557;SDS011;60583;50.094;8.748;2022-12-11T04:42:14;30.13;;;15.60;;
72557;SDS011;60583;50.094;8.748;2022-12-11T04:44:40;31.30;;;14.77;;
72557;SDS011;60583;50.094;8.748;2022-12-11T04:47:05;30.67;;;15.20;;
72557;SDS011;60583;50.094;8.748;2022-12-11T04:49:31;32.92;;;15.10;;
72557;SDS011;60583;50.094;8.748;2022-12-11T04:51:56;34.10;;;15.75;;
72557;SDS011;60583;50.094;8.748;2022-12-11T04:54:22;31.10;;;14.82;;
72557;SDS011;60583;50.094;8.748;2022-12-11T04:56:47;31.48;;;14.27;;
72557;SDS011;60583;50.094;8.748;2022-12-11T04:59:12;26.55;;;14.27;;
72557;SDS011;60583;50.094;8.748;2022-12-11T05:01:38;29.08;;;13.27;;
72557;SDS011;60583;50.094;8.748;2022-12-11T05:04:03;28.65;;;13.93;;
72557;SDS011;60583;50.094;8.748;2022-12-11T05:06:28;27.27;;;13.50;;
72557;SDS011;60583;50.094;8.748;2022-12-11T05:08:54;29.92;;;13.68;;
72557;SDS011;60583;50.094;8.748;2022-12-11T05:11:19;29.77;;;13.95;;
72557;SDS011;60583;50.094;8.748;2022-12-11T05:13:45;29.83;;;14.88;;
72557;SDS011;60583;50.094;8.748;2022-12-11T05:16:11;28.38;;;14.60;;
72557;SDS011;60583;50.094;8.748;2022-12-11T05:18:39;29.15;;;13.45;;
72557;SDS011;60583;50.094;8.748;2022-12-11T05:21:05;27.10;;;13.25;;
72557;SDS011;60583;50.094;8.748;2022-12-11T05:23:32;30.83;;;14.10;;
72557;SDS011;60583;50.094;8.748;2022-12-11T05:25:59;29.42;;;13.82;;
72557;SDS011;60583;50.094;8.748;2022-12-11T05:28:27;29.20;;;14.13;;
72557;SDS011;60583;50.094;8.748;2022-12-11T05:30:55;28.63;;;13.30;;
72557;SDS011;60583;50.094;8.748;2022-12-11T05:33:22;32.47;;;14.93;;
72557;SDS011;60583;50.094;8.748;2022-12-11T05:35:47;30.58;;;14.45;;
72557;SDS011;60583;50.094;8.748;2022-12-11T05:38:13;29.50;;;13.60;;
72557;SDS011;60583;50.094;8.748;2022-12-11T05:40:39;31.80;;;14.70;;
72557;SDS011;60583;50.094;8.748;2022-12-11T05:43:04;30.67;;;13.73;;
72557;SDS011;60583;50.094;8.748;2022-12-11T05:45:29;34.42;;;15.40;;
72557;SDS011;60583;50.094;8.748;2022-12-11T05:47:55;31.20;;;14.13;;
72557;SDS011;60583;50.094;8.748;2022-12-11T05:50:20;33.30;;;15.52;;
72557;SDS011;60583;50.094;8.748;2022-12-11T05:52:45;30.67;;;14.90;;
72557;SDS011;60583;50.094;8.748;2022-12-11T05:55:11;32.08;;;14.80;;
72557;SDS011;60583;50.094;8.748;2022-12-11T05:57:36;30.13;;;13.85;;
72557;SDS011;60583;50.094;8.748;2022-12-11T06:00:03;28.00;;;12.93;;
72557;SDS011;60583;50.094;8.748;2022-12-11T06:02:29;30.98;;;14.68;;
72557;SDS011;60583;50.094;8.748;2022-12-11T06:04:54;28.45;;;14.57;;
72557;SDS011;60583;50.094;8.748;2022-12-11T06:07:20;32.15;;;15.32;;
72557;SDS011;60583;50.094;8.748;2022-12-11T06:09:45;31.00;;;14.88;;
72557;SDS011;60583;50.094;8.748;2022-12-11T06:12:10;32.92;;;14.73;;
72557;SDS011;60583;50.094;8.748;2022-12-11T06:14:36;35.03;;;14.63;;
72557;SDS011;60583;50.094;8.748;2022-12-11T06:17:01;34.60;;;14.88;;
72557;SDS011;60583;50.094;8.748;2022-12-11T06:19:27;31.75;;;14.43;;
72557;SDS011;60583;50.094;8.748;2022-12-11T06:21:52;30.73;;;14.82;;
72557;SDS011;60583;50.094;8.748;2022-12-11T06:24:17;34.95;;;14.90;;
72557;SDS011;60583;50.094;8.748;2022-12-11T06:26:43;29.42;;;13.30;;
72557;SDS011;60583;50.094;8.748;2022-12-11T06:29:08;33.63;;;15.38;;
72557;SDS011;60583;50.094;8.748;2022-12-11T06:31:33;32.33;;;14.77;;
72557;SDS011;60583;50.094;8.748;2022-12-11T06:33:59;33.03;;;15.52;;
72557;SDS011;60583;50.094;8.748;2022-12-11T06:36:24;31.02;;;14.40;;
72557;SDS011;60583;50.094;8.748;2022-12-11T06:38:50;34.55;;;14.85;;
72557;SDS011;60583;50.094;8.748;2022-12-11T06:41:16;34.97;;;15.75;;
72557;SDS011;60583;50.094;8.748;2022-12-11T06:43:41;33.92;;;15.60;;
72557;SDS011;60583;50.094;8.748;2022-12-11T06:46:08;34.45;;;14.70;;
72557;SDS011;60583;50.094;8.748;2022-12-11T06:48:35;32.22;;;14.80;;
72557;SDS011;60583;50.094;8.748;2022-12-11T06:51:08;30.13;;;14.40;;
72557;SDS011;60583;50.094;8.748;2022-12-11T06:53:35;35.28;;;15.15;;
72557;SDS011;60583;50.094;8.748;2022-12-11T06:56:04;31.50;;;15.82;;
72557;SDS011;60583;50.094;8.748;2022-12-11T06:58:32;34.67;;;15.63;;
72557;SDS011;60583;50.094;8.748;2022-12-11T07:00:58;34.28;;;15.13;;
72557;SDS011;60583;50.094;8.748;2022-12-11T07:03:24;34.15;;;15.82;;
72557;SDS011;60583;50.094;8.748;2022-12-11T07:05:49;33.92;;;15.40;;
72557;SDS011;60583;50.094;8.748;2022-12-11T07:08:15;31.73;;;14.70;;
72557;SDS011;60583;50.094;8.748;2022-12-11T07:10:40;35.88;;;15.50;;
72557;SDS011;60583;50.094;8.748;2022-12-11T07:13:05;35.38;;;15.25;;
72557;SDS011;60583;50.094;8.748;2022-12-11T07:15:31;34.78;;;14.68;;
72557;SDS011;60583;50.094;8.748;2022-12-11T07:17:56;34.90;;;15.45;;
72557;SDS011;60583;50.094;8.748;2022-12-11T07:20:22;32.22;;;14.63;;
72557;SDS011;60583;50.094;8.748;2022-12-11T07:22:47;32.00;;;15.15;;
72557;SDS011;60583;50.094;8.748;2022-12-11T07:25:13;31.73;;;15.18;;
72557;SDS011;60583;50.094;8.748;2022-12-11T07:27:39;36.88;;;16.67;;
72557;SDS011;60583;50.094;8.748;2022-12-11T07:30:05;34.22;;;15.65;;
72557;SDS011;60583;50.094;8.748;2022-12-11T07:32:31;37.60;;;15.60;;
72557;SDS011;60583;50.094;8.748;2022-12-11T07:34:57;34.17;;;15.13;;
72557;SDS011;60583;50.094;8.748;2022-12-11T07:37:23;34.30;;;15.10;;
72557;SDS011;60583;50.094;8.748;2022-12-11T07:39:49;33.65;;;16.35;;
72557;SDS011;60583;50.094;8.748;2022-12-11T07:42:14;35.25;;;15.43;;
72557;SDS011;60583;50.094;8.748;2022-12-11T07:44:40;33.45;;;15.30;;
72557;SDS011;60583;50.094;8.748;2022-12-11T07:47:05;32.67;;;14.98;;
72557;SDS011;60583;50.094;8.748;2022-12-11T07:49:30;34.38;;;16.02;;
72557;SDS011;60583;50.094;8.748;2022-12-11T07:51:56;32.80;;;15.45;;
72557;SDS011;60583;50.094;8.748;2022-12-11T07:54:21;31.10;;;14.85;;
72557;SDS011;60583;50.094;8.748;2022-12-11T07:56:47;33.15;;;15.25;;
72557;SDS011;60583;50.094;8.748;2022-12-11T07:59:12;33.65;;;15.70;;
72557;SDS011;60583;50.094;8.748;2022-12-11T08:01:38;31.40;;;15.10;;
72557;SDS011;60583;50.094;8.748;2022-12-11T08:04:06;35.22;;;14.35;;
72557;SDS011;60583;50.094;8.748;2022-12-11T08:06:34;35.90;;;15.13;;
72557;SDS011;60583;50.094;8.748;2022-12-11T08:09:02;33.17;;;16.08;;
72557;SDS011;60583;50.094;8.748;2022-12-11T08:13:58;34.95;;;15.13;;
72557;SDS011;60583;50.094;8.748;2022-12-11T08:16:23;38.17;;;16.33;;
72557;SDS011;60583;50.094;8.748;2022-12-11T08:18:50;36.85;;;15.70;;
72557;SDS011;60583;50.094;8.748;2022-12-11T08:21:17;38.45;;;16.08;;
72557;SDS011;60583;50.094;8.748;2022-12-11T08:23:47;35.10;;;16.40;;
72557;SDS011;60583;50.094;8.748;2022-12-11T08:26:14;34.30;;;16.23;;
72557;SDS011;60583;50.094;8.748;2022-12-11T08:28:42;34.60;;;14.98;;
72557;SDS011;60583;50.094;8.748;2022-12-11T08:31:08;33.33;;;15.52;;
72557;SDS011;60583;50.094;8.748;2022-12-11T08:33:35;36.70;;;15.60;;
72557;SDS011;60583;50.094;8.748;2022-12-11T08:36:05;36.63;;;16.67;;
72557;SDS011;60583;50.094;8.748;2022-12-11T08:38:32;34.35;;;16.42;;
72557;SDS011;60583;50.094;8.748;2022-12-11T08:40:58;33.75;;;15.70;;
72557;SDS011;60583;50.094;8.748;2022-12-11T08:43:32;33.88;;;15.05;;
72557;SDS011;60583;50.094;8.748;2022-12-11T08:45:57;35.67;;;16.40;;
72557;SDS011;60583;50.094;8.748;2022-12-11T08:48:23;35.35;;;16.17;;
72557;SDS011;60583;50.094;8.748;2022-12-11T08:50:48;31.88;;;15.77;;
72557;SDS011;60583;50.094;8.748;2022-12-11T08:53:13;36.38;;;16.23;;
72557;SDS011;60583;50.094;8.748;2022-12-11T08:55:39;36.53;;;17.75;;
72557;SDS011;60583;50.094;8.748;2022-12-11T08:58:04;33.58;;;16.63;;
72557;SDS011;60583;50.094;8.748;2022-12-11T09:00:30;33.05;;;16.33;;
72557;SDS011;60583;50.094;8.748;2022-12-11T09:02:55;34.25;;;16.88;;
72557;SDS011;60583;50.094;8.748;2022-12-11T09:05:20;38.40;;;16.85;;
72557;SDS011;60583;50.094;8.748;2022-12-11T09:07:46;35.90;;;16.48;;
72557;SDS011;60583;50.094;8.748;2022-12-11T09:10:11;36.03;;;16.95;;
72557;SDS011;60583;50.094;8.748;2022-12-11T09:12:37;34.85;;;15.77;;
72557;SDS011;60583;50.094;8.748;2022-12-11T09:15:02;34.92;;;16.65;;
72557;SDS011;60583;50.094;8.748;2022-12-11T09:17:28;35.20;;;16.75;;
72557;SDS011;60583;50.094;8.748;2022-12-11T09:19:54;32.90;;;15.27;;
72557;SDS011;60583;50.094;8.748;2022-12-11T09:22:19;34.78;;;16.85;;
72557;SDS011;60583;50.094;8.748;2022-12-11T09:24:45;36.47;;;16.45;;
72557;SDS011;60583;50.094;8.748;2022-12-11T09:27:11;36.75;;;15.85;;
72557;SDS011;60583;50.094;8.748;2022-12-11T09:29:37;35.55;;;15.82;;
72557;SDS011;60583;50.094;8.748;2022-12-11T09:32:03;32.60;;;15.77;;
72557;SDS011;60583;50.094;8.748;2022-12-11T09:34:30;34.25;;;17.13;;
72557;SDS011;60583;50.094;8.748;2022-12-11T09:36:55;35.83;;;16.35;;
72557;SDS011;60583;50.094;8.748;2022-12-11T09:39:21;33.88;;;16.65;;
72557;SDS011;60583;50.094;8.748;2022-12-11T09:44:57;38.40;;;18.15;;
72557;SDS011;60583;50.094;8.748;2022-12-11T09:47:29;37.78;;;17.45;;
72557;SDS011;60583;50.094;8.748;2022-12-11T09:50:10;41.08;;;17.90;;
72557;SDS011;60583;50.094;8.748;2022-12-11T09:58:38;31.75;;;15.93;;
72557;SDS011;60583;50.094;8.748;2022-12-11T10:01:09;35.95;;;16.70;;
72557;SDS011;60583;50.094;8.748;2022-12-11T10:06:31;36.47;;;17.50;;
72557;SDS011;60583;50.094;8.748;2022-12-11T10:14:23;36.33;;;16.95;;
72557;SDS011;60583;50.094;8.748;2022-12-11T10:16:56;39.20;;;18.20;;
72557;SDS011;60583;50.094;8.748;2022-12-11T10:19:28;38.28;;;17.35;;
72557;SDS011;60583;50.094;8.748;2022-12-11T10:21:56;40.08;;;18.30;;
72557;SDS011;60583;50.094;8.748;2022-12-11T10:24:28;42.65;;;18.63;;
72557;SDS011;60583;50.094;8.748;2022-12-11T10:27:15;43.28;;;19.35;;
72557;SDS011;60583;50.094;8.748;2022-12-11T10:29:45;42.55;;;19.42;;
72557;SDS011;60583;50.094;8.748;2022-12-11T10:32:22;37.92;;;18.05;;
72557;SDS011;60583;50.094;8.748;2022-12-11T10:34:56;44.70;;;19.92;;
72557;SDS011;60583;50.094;8.748;2022-12-11T10:37:26;38.38;;;17.50;;
72557;SDS011;60583;50.094;8.748;2022-12-11T10:39:51;34.72;;;16.95;;
72557;SDS011;60583;50.094;8.748;2022-12-11T10:42:18;42.10;;;17.40;;
72557;SDS011;60583;50.094;8.748;2022-12-11T10:44:59;38.42;;;17.58;;
72557;SDS011;60583;50.094;8.748;2022-12-11T10:47:26;38.50;;;18.50;;
72557;SDS011;60583;50.094;8.748;2022-12-11T10:49:53;37.83;;;17.48;;
72557;SDS011;60583;50.094;8.748;2022-12-11T11:02:53;43.00;;;18.42;;
72557;SDS011;60583;50.094;8.748;2022-12-11T11:08:18;41.08;;;17.85;;
72557;SDS011;60583;50.094;8.748;2022-12-11T11:10:56;42.80;;;18.83;;
72557;SDS011;60583;50.094;8.748;2022-12-11T11:13:27;41.92;;;17.52;;
72557;SDS011;60583;50.094;8.748;2022-12-11T11:16:00;42.53;;;18.73;;
72557;SDS011;60583;50.094;8.748;2022-12-11T11:18:28;42.83;;;19.67;;
72557;SDS011;60583;50.094;8.748;2022-12-11T11:20:56;40.33;;;18.02;;
72557;SDS011;60583;50.094;8.748;2022-12-11T11:23:22;40.47;;;17.70;;
72557;SDS011;60583;50.094;8.748;2022-12-11T11:25:53;39.45;;;18.75;;
72557;SDS011;60583;50.094;8.748;2022-12-11T11:28:25;43.70;;;20.27;;
72557;SDS011;60583;50.094;8.748;2022-12-11T11:30:57;44.45;;;18.40;;
72557;SDS011;60583;50.094;8.748;2022-12-11T11:33:26;36.97;;;16.92;;
72557;SDS011;60583;50.094;8.748;2022-12-11T11:35:56;36.47;;;16.58;;
72557;SDS011;60583;50.094;8.748;2022-12-11T11:38:27;39.33;;;16.58;;
72557;SDS011;60583;50.094;8.748;2022-12-11T11:46:22;32.83;;;14.38;;
72557;SDS011;60583;50.094;8.748;2022-12-11T11:49:11;33.47;;;14.35;;
72557;SDS011;60583;50.094;8.748;2022-12-11T11:51:55;41.35;;;18.58;;
72557;SDS011;60583;50.094;8.748;2022-12-11T11:54:35;38.88;;;17.25;;
72557;SDS011;60583;50.094;8.748;2022-12-11T11:57:14;40.63;;;16.42;;
72557;SDS011;60583;50.094;8.748;2022-12-11T11:59:48;35.40;;;14.25;;
72557;SDS011;60583;50.094;8.748;2022-12-11T12:02:19;32.83;;;13.43;;
72557;SDS011;60583;50.094;8.748;2022-12-11T12:04:45;31.52;;;13.65;;
72557;SDS011;60583;50.094;8.748;2022-12-11T12:10:39;23.60;;;11.05;;
72557;SDS011;60583;50.094;8.748;2022-12-11T12:16:07;32.92;;;13.30;;
72557;SDS011;60583;50.094;8.748;2022-12-11T12:19:02;33.65;;;14.25;;
72557;SDS011;60583;50.094;8.748;2022-12-11T12:21:38;31.80;;;13.05;;
72557;SDS011;60583;50.094;8.748;2022-12-11T12:27:15;30.45;;;13.27;;
72557;SDS011;60583;50.094;8.748;2022-12-11T12:29:44;30.08;;;12.95;;
72557;SDS011;60583;50.094;8.748;2022-12-11T12:35:54;31.45;;;14.50;;
72557;SDS011;60583;50.094;8.748;2022-12-11T12:43:44;29.90;;;13.45;;
72557;SDS011;60583;50.094;8.748;2022-12-11T12:48:50;32.47;;;15.13;;
72557;SDS011;60583;50.094;8.748;2022-12-11T12:51:18;31.98;;;13.23;;
72557;SDS011;60583;50.094;8.748;2022-12-11T12:53:46;28.30;;;11.73;;
72557;SDS011;60583;50.094;8.748;2022-12-11T12:56:17;30.92;;;14.90;;
72557;SDS011;60583;50.094;8.748;2022-12-11T12:58:46;28.75;;;13.38;;
72557;SDS011;60583;50.094;8.748;2022-12-11T13:03:48;28.85;;;12.10;;
72557;SDS011;60583;50.094;8.748;2022-12-11T13:06:41;29.30;;;12.38;;
72557;SDS011;60583;50.094;8.748;2022-12-11T13:09:41;27.35;;;11.55;;
72557;SDS011;60583;50.094;8.748;2022-12-11T13:11:59;26.77;;;11.68;;
72557;SDS011;60583;50.094;8.748;2022-12-11T13:14:39;28.17;;;12.63;;
72557;SDS011;60583;50.094;8.748;2022-12-11T13:19:45;29.60;;;12.00;;
72557;SDS011;60583;50.094;8.748;2022-12-11T13:30:22;30.42;;;13.73;;
72557;SDS011;60583;50.094;8.748;2022-12-11T13:32:55;34.42;;;14.75;;
72557;SDS011;60583;50.094;8.748;2022-12-11T13:37:52;32.45;;;13.77;;
72557;SDS011;60583;50.094;8.748;2022-12-11T13:40:26;32.45;;;14.10;;
72557;SDS011;60583;50.094;8.748;2022-12-11T13:43:01;32.45;;;13.43;;
72557;SDS011;60583;50.094;8.748;2022-12-11T13:45:43;29.77;;;12.85;;
72557;SDS011;60583;50.094;8.748;2022-12-11T13:50:47;31.25;;;12.95;;
72557;SDS011;60583;50.094;8.748;2022-12-11T13:53:15;28.55;;;13.68;;
72557;SDS011;60583;50.094;8.748;2022-12-11T13:55:42;32.78;;;14.63;;
72557;SDS011;60583;50.094;8.748;2022-12-11T13:58:16;103.90;;;30.75;;
72557;SDS011;60583;50.094;8.748;2022-12-11T14:00:53;104.97;;;34.63;;
72557;SDS011;60583;50.094;8.748;2022-12-11T14:03:45;50.03;;;17.77;;
72557;SDS011;60583;50.094;8.748;2022-12-11T14:06:17;36.80;;;13.77;;
72557;SDS011;60583;50.094;8.748;2022-12-11T14:08:43;36.70;;;13.27;;
72557;SDS011;60583;50.094;8.748;2022-12-11T14:11:17;32.30;;;12.63;;
72557;SDS011;60583;50.094;8.748;2022-12-11T14:13:51;31.48;;;13.18;;
72557;SDS011;60583;50.094;8.748;2022-12-11T14:16:19;29.70;;;12.32;;
72557;SDS011;60583;50.094;8.748;2022-12-11T14:18:47;31.02;;;14.13;;
72557;SDS011;60583;50.094;8.748;2022-12-11T14:21:19;32.95;;;12.77;;
72557;SDS011;60583;50.094;8.748;2022-12-11T14:23:50;30.88;;;13.05;;
72557;SDS011;60583;50.094;8.748;2022-12-11T14:28:44;30.63;;;13.45;;
72557;SDS011;60583;50.094;8.748;2022-12-11T14:31:23;32.78;;;14.75;;
72557;SDS011;60583;50.094;8.748;2022-12-11T14:34:00;31.08;;;14.27;;
72557;SDS011;60583;50.094;8.748;2022-12-11T14:36:29;29.95;;;13.40;;
72557;SDS011;60583;50.094;8.748;2022-12-11T14:39:19;32.60;;;14.05;;
72557;SDS011;60583;50.094;8.748;2022-12-11T14:41:52;30.58;;;14.13;;
72557;SDS011;60583;50.094;8.748;2022-12-11T14:44:24;42.67;;;16.17;;
72557;SDS011;60583;50.094;8.748;2022-12-11T14:47:09;32.83;;;13.70;;
72557;SDS011;60583;50.094;8.748;2022-12-11T14:49:51;39.00;;;15.55;;
72557;SDS011;60583;50.094;8.748;2022-12-11T14:52:45;37.17;;;14.93;;
72557;SDS011;60583;50.094;8.748;2022-12-11T14:55:16;29.52;;;14.55;;
72557;SDS011;60583;50.094;8.748;2022-12-11T14:57:47;34.10;;;14.20;;
72557;SDS011;60583;50.094;8.748;2022-12-11T15:00:24;30.60;;;12.65;;
72557;SDS011;60583;50.094;8.748;2022-12-11T15:03:35;30.88;;;13.25;;
72557;SDS011;60583;50.094;8.748;2022-12-11T15:08:46;32.28;;;13.68;;
72557;SDS011;60583;50.094;8.748;2022-12-11T15:11:12;32.03;;;14.57;;
72557;SDS011;60583;50.094;8.748;2022-12-11T15:13:53;33.25;;;13.05;;
72557;SDS011;60583;50.094;8.748;2022-12-11T15:16:22;28.60;;;12.57;;
72557;SDS011;60583;50.094;8.748;2022-12-11T15:18:51;32.08;;;13.68;;
72557;SDS011;60583;50.094;8.748;2022-12-11T15:21:18;33.47;;;14.60;;
72557;SDS011;60583;50.094;8.748;2022-12-11T15:23:54;34.60;;;13.40;;
72557;SDS011;60583;50.094;8.748;2022-12-11T15:26:37;33.63;;;12.55;;
72557;SDS011;60583;50.094;8.748;2022-12-11T15:31:59;34.17;;;13.85;;
72557;SDS011;60583;50.094;8.748;2022-12-11T15:36:55;30.92;;;13.23;;
72557;SDS011;60583;50.094;8.748;2022-12-11T15:39:20;30.35;;;12.35;;
72557;SDS011;60583;50.094;8.748;2022-12-11T15:41:46;32.40;;;12.75;;
72557;SDS011;60583;50.094;8.748;2022-12-11T15:44:14;32.55;;;14.02;;
72557;SDS011;60583;50.094;8.748;2022-12-11T15:46:44;32.05;;;13.48;;
72557;SDS011;60583;50.094;8.748;2022-12-11T15:49:12;35.55;;;14.20;;
72557;SDS011;60583;50.094;8.748;2022-12-11T15:51:39;32.60;;;14.73;;
72557;SDS011;60583;50.094;8.748;2022-12-11T15:54:05;36.22;;;15.43;;
72557;SDS011;60583;50.094;8.748;2022-12-11T15:56:30;36.90;;;15.38;;
72557;SDS011;60583;50.094;8.748;2022-12-11T15:58:57;35.03;;;14.88;;
72557;SDS011;60583;50.094;8.748;2022-12-11T16:01:28;31.38;;;13.82;;
72557;SDS011;60583;50.094;8.748;2022-12-11T16:03:54;33.20;;;14.35;;
72557;SDS011;60583;50.094;8.748;2022-12-11T16:06:19;31.50;;;13.95;;
72557;SDS011;60583;50.094;8.748;2022-12-11T16:08:45;30.95;;;12.98;;
72557;SDS011;60583;50.094;8.748;2022-12-11T16:11:11;23.73;;;10.85;;